Terminal Aerodrome Forecast
Issued by NWS

Current Version | Previous Version | Text Only | Print | Product List | Glossary On
Versions: 1 2 3 4 5 6 7 8 9 10 11 12 13 14 15 16 17 18 19
000
FTAK31 PANC 282340
TAFACD
TAF
PACD 282340Z 2900/2924 14011KT P6SM OVC035
     FM291000 14015G25KT P6SM SCT025 OVC035
     FM292000 14020G30KT P6SM BKN035=

USA.gov is the U.S. government's official web portal to all federal, state and local government web resources and services.